Thursday, October 18, 2018, 2:35 PM GMT
Back to Local

CYOW, Ottawa Int'L. Ont.

Location: , , Canada Lat: 45.317
Local Time: 2:35 PM GMT (14:35 GMT) Lon: -75.667
Time Zone: GMT Elev: 380 ft

Show me the last for .
Show Coded

Time T Td Feel RH Dir Speed Gust Alt SLP Vis Weather Sky Remarks
2018-10-18 14:00 34 18 24 50 280° 15 - 30.33 30.35 15 FEW035 None
2018-10-18 13:00 32 18 19 54 300° 16 25 30.32 30.34 15 FEW040 None
2018-10-18 12:00 30 19 17 63 290° 15 22 30.30 30.32 15 SCT035 None
2018-10-18 11:00 30 18 16 58 290° 17 25 30.27 30.29 15 SCT042 None
2018-10-18 10:00 30 18 18 58 310° 20 - 30.24 30.26 15 SCT044 None
2018-10-18 09:27 30 18 15 58 300° 18 30 30.23 30.25 15 FEW045 None
2018-10-18 09:00 32 19 20 59 290° 13 18 30.22 30.24 15 SCT038 OVC047 None
2018-10-18 08:00 32 19 18 59 300° 18 26 30.19 30.21 15 BKN039 None
2018-10-18 07:00 30 21 17 68 290° 13 22 30.16 30.18 15 FEW035 None
2018-10-18 06:00 32 21 18 63 280° 14 26 30.14 30.15 15 SCT034 None
2018-10-18 05:00 32 21 18 63 300° 22 29 30.11 30.12 15 SCT038 Pressure rising rapidly
2018-10-18 04:00 32 23 19 68 300° 23 - 30.08 30.09 15 FEW030 None
2018-10-18 03:00 34 23 21 64 300° 16 25 30.05 30.07 15 FEW030 None
2018-10-18 02:00 34 25 20 69 300° 16 29 30.03 30.05 15 BKN030 BKN093 None
2018-10-18 01:00 36 27 23 69 320° 17 25 30.00 30.02 15 FEW045 SCT065 SCT070 None
2018-10-18 00:25 36 25 24 64 300° 16 24 29.98 30.00 15 FEW100 None
2018-10-18 00:00 37 25 25 60 300° 17 29 29.97 29.98 15 FEW062 BKN078 None
2018-10-17 23:00 39 23 28 51 290° 20 28 29.93 29.94 15 FEW050 SCT080 BKN100 None
2018-10-17 22:00 41 25 29 52 280° 23 33 29.88 29.90 15 FEW040TCU BKN090 None
2018-10-17 21:00 39 30 30 69 270° 12 18 29.85 29.87 15 SCT040TCU BKN080 None
2018-10-17 20:44 39 30 30 69 270° 12 18 29.85 29.87 15 SCT040TCU BKN081 None
2018-10-17 20:19 37 32 25 80 300° 21 30 29.85 29.87 15 -SHRA BKN045TCU BKN070 None
2018-10-17 20:00 39 32 27 75 300° 28 35 29.84 29.85 15 VCSH SCT040TCU BKN070 Pressure rising rapidly
2018-10-17 19:28 43 34 34 70 270° 13 21 29.82 29.83 15 SCT050TCU BKN077 None
2018-10-17 19:00 41 28 31 60 260° 15 22 29.81 29.83 10 -SHRA BKN041TCU None
2018-10-17 18:27 43 28 34 56 260° 12 23 29.80 29.82 15 BKN060TCU None
2018-10-17 18:08 43 27 33 52 270° 20 26 29.80 29.82 15 -SHRA BKN057TCU None
2018-10-17 18:00 45 27 35 48 270° 15 28 29.80 29.81 15 BKN057TCU None
2018-10-17 17:00 46 28 39 49 290° 13 22 29.79 29.80 15 FEW040 BKN060 BKN240 None
2018-10-17 16:00 45 28 35 52 290° 17 31 29.78 29.80 15 FEW040 BKN060 BKN100 None
2018-10-17 15:00 45 25 35 45 290° 21 30 29.78 29.79 15 FEW036 BKN055 BKN240 None

Support USWX by starting your Amazon purchase here.